createdAt,value
2018-10-11T00:02:41.828Z,5.90
2018-10-11T00:07:46.069Z,5.77
2018-10-11T00:12:50.490Z,6.10
2018-10-11T00:17:54.759Z,7.40
2018-10-11T00:22:59.002Z,7.23
2018-10-11T00:28:03.135Z,6.10
2018-10-11T00:33:07.458Z,5.83
2018-10-11T00:38:11.700Z,6.23
2018-10-11T00:43:15.942Z,6.27
2018-10-11T00:48:20.167Z,5.57
2018-10-11T00:53:24.550Z,6.77
2018-10-11T00:58:28.762Z,6.97
2018-10-11T01:03:32.994Z,7.17
2018-10-11T01:08:37.576Z,6.23
2018-10-11T01:13:41.755Z,6.40
2018-10-11T01:18:46.092Z,6.17
2018-10-11T01:23:50.340Z,6.80
2018-10-11T01:28:54.627Z,6.53
2018-10-11T01:33:58.845Z,5.53
2018-10-11T01:39:03.148Z,6.77
2018-10-11T01:44:07.336Z,5.60
2018-10-11T01:49:11.706Z,5.90
2018-10-11T01:54:15.997Z,6.30
2018-10-11T01:59:20.229Z,6.37
2018-10-11T02:04:24.583Z,5.70
2018-10-11T02:09:29.165Z,6.00
2018-10-11T02:14:33.281Z,6.03
2018-10-11T02:19:37.537Z,5.57
2018-10-11T02:24:41.738Z,6.23
2018-10-11T02:29:45.948Z,5.67
2018-10-11T02:34:50.255Z,6.33
2018-10-11T02:39:54.862Z,5.93
2018-10-11T02:44:59.044Z,6.03
2018-10-11T02:50:03.417Z,6.30
2018-10-11T02:55:07.882Z,6.40
2018-10-11T03:00:12.241Z,6.43
2018-10-11T03:05:17.898Z,5.90
2018-10-11T03:10:22.177Z,6.17
2018-10-11T03:15:26.421Z,5.63
2018-10-11T03:20:30.963Z,5.80
2018-10-11T03:25:35.228Z,6.20
2018-10-11T03:30:39.690Z,5.73
2018-10-11T03:35:44.628Z,6.23
2018-10-11T03:40:49.024Z,6.00
2018-10-11T03:45:53.202Z,6.63
2018-10-11T03:50:57.535Z,6.53
2018-10-11T03:56:01.823Z,5.90
2018-10-11T04:01:06.048Z,6.30
2018-10-11T04:06:10.296Z,6.40
2018-10-11T04:11:14.513Z,6.40
2018-10-11T04:16:19.872Z,6.47
2018-10-11T04:21:24.302Z,5.93
2018-10-11T04:26:28.658Z,5.87
2018-10-11T04:31:33.088Z,6.20
2018-10-11T04:36:37.272Z,5.77
2018-10-11T04:41:42.180Z,6.37
2018-10-11T04:46:46.377Z,6.67
2018-10-11T04:51:50.616Z,7.17
2018-10-11T04:56:54.826Z,6.30
2018-10-11T05:01:59.169Z,5.70
2018-10-11T05:07:03.426Z,5.70
2018-10-11T05:12:07.695Z,6.00
2018-10-11T05:17:11.990Z,6.30
2018-10-11T05:22:16.202Z,5.83
2018-10-11T05:27:20.583Z,6.27
2018-10-11T05:32:24.956Z,5.90
2018-10-11T05:37:29.603Z,5.93
2018-10-11T05:42:34.052Z,6.13
2018-10-11T05:47:38.443Z,5.80
2018-10-11T05:52:43.728Z,6.60
2018-10-11T05:57:48.038Z,5.47
2018-10-11T06:03:00.203Z,5.77
2018-10-11T06:08:04.571Z,5.73
2018-10-11T06:13:09.290Z,6.53
2018-10-11T06:18:14.495Z,5.90
2018-10-11T06:23:19.659Z,6.60
2018-10-11T06:28:23.931Z,6.60
2018-10-11T06:33:28.679Z,7.27
2018-10-11T06:38:33.184Z,6.30
2018-10-11T06:43:38.513Z,7.03
2018-10-11T06:48:42.840Z,7.47
2018-10-11T06:53:47.565Z,6.80
2018-10-11T06:58:51.965Z,6.23
2018-10-11T07:03:56.275Z,7.27
2018-10-11T07:09:00.456Z,7.33
2018-10-11T07:14:04.632Z,23.70
2018-10-11T07:19:08.818Z,26.10
2018-10-11T07:24:13.058Z,10.33
2018-10-11T07:29:17.241Z,9.03
2018-10-11T07:34:21.498Z,7.07
2018-10-11T07:39:25.819Z,8.83
2018-10-11T07:44:30.431Z,6.53
2018-10-11T07:49:34.936Z,5.83
2018-10-11T07:54:39.273Z,6.53
2018-10-11T07:59:43.472Z,7.83
2018-10-11T08:04:47.714Z,7.47
2018-10-11T08:09:52.136Z,7.40
2018-10-11T08:14:56.384Z,6.90
2018-10-11T08:20:01.040Z,7.60
2018-10-11T08:25:05.548Z,6.83
2018-10-11T08:30:09.618Z,7.37
2018-10-11T08:35:13.794Z,6.37
2018-10-11T08:40:17.943Z,6.50
2018-10-11T08:45:22.390Z,6.20
2018-10-11T08:50:26.639Z,6.73
2018-10-11T08:55:30.853Z,6.83
2018-10-11T09:00:35.067Z,5.60
2018-10-11T09:05:39.631Z,6.43
2018-10-11T09:10:43.842Z,7.53
2018-10-11T09:15:48.070Z,6.27
2018-10-11T09:20:52.284Z,6.70
2018-10-11T09:25:56.607Z,7.10
2018-10-11T09:31:01.097Z,7.57
2018-10-11T09:36:05.553Z,6.60
2018-10-11T09:41:09.727Z,7.57
2018-10-11T09:46:13.949Z,5.70
2018-10-11T09:51:18.231Z,6.67
2018-10-11T09:56:22.863Z,6.83
2018-10-11T10:01:32.349Z,7.30
2018-10-11T10:06:36.489Z,7.07
2018-10-11T10:11:40.650Z,6.57
2018-10-11T10:16:44.918Z,8.80
2018-10-11T10:21:49.105Z,7.40
2018-10-11T10:26:53.480Z,7.03
2018-10-11T10:31:57.829Z,7.73
2018-10-11T10:37:02.245Z,6.87
2018-10-11T10:42:06.432Z,7.57
2018-10-11T10:47:10.685Z,6.67
2018-10-11T10:52:14.884Z,6.20
2018-10-11T10:57:19.054Z,5.80
2018-10-11T11:02:23.360Z,5.83
2018-10-11T11:07:27.680Z,6.03
2018-10-11T11:12:31.808Z,5.80
2018-10-11T11:17:36.039Z,5.53
2018-10-11T11:22:40.400Z,4.90
2018-10-11T11:27:44.641Z,5.77
2018-10-11T11:32:48.996Z,5.10
2018-10-11T11:37:53.478Z,5.00
2018-10-11T11:42:57.718Z,5.23
2018-10-11T11:48:01.992Z,4.90
2018-10-11T11:53:06.436Z,4.63
2018-10-11T11:58:10.621Z,5.03
2018-10-11T12:03:14.951Z,4.50
2018-10-11T12:08:19.193Z,4.80
2018-10-11T12:13:23.436Z,5.30
2018-10-11T12:18:27.879Z,4.63
2018-10-11T12:23:32.090Z,4.53
2018-10-11T12:28:36.620Z,4.53
2018-10-11T12:33:40.721Z,4.40
2018-10-11T12:38:46.343Z,4.73
2018-10-11T12:43:50.438Z,4.40
2018-10-11T12:48:54.734Z,3.93
2018-10-11T12:53:59.048Z,4.13
2018-10-11T12:59:03.316Z,3.83
2018-10-11T13:04:07.525Z,3.80
2018-10-11T13:09:11.973Z,3.40
2018-10-11T13:14:16.508Z,3.33
2018-10-11T13:19:21.075Z,2.63
2018-10-11T13:24:25.295Z,2.47
2018-10-11T13:29:29.442Z,1.97
2018-10-11T13:34:33.661Z,1.60
2018-10-11T13:39:37.928Z,2.00
2018-10-11T13:44:42.124Z,1.40
2018-10-11T13:49:46.275Z,1.70
2018-10-11T13:54:50.551Z,1.47
2018-10-11T13:59:54.805Z,1.60
2018-10-11T14:04:59.145Z,1.50
2018-10-11T14:10:03.465Z,1.40
2018-10-11T14:15:08.419Z,1.23
2018-10-11T14:20:12.642Z,1.20
2018-10-11T14:25:16.856Z,1.17
2018-10-11T14:30:21.081Z,2.73
2018-10-11T14:35:25.643Z,3.00
2018-10-11T14:40:30.974Z,4.03
2018-10-11T14:45:35.196Z,3.97
2018-10-11T14:50:39.552Z,4.60
2018-10-11T14:55:43.967Z,4.83
2018-10-11T15:00:48.199Z,4.67
2018-10-11T15:05:52.712Z,5.23
2018-10-11T15:10:57.081Z,4.87
2018-10-11T15:16:01.341Z,4.57
2018-10-11T15:21:05.564Z,4.80
2018-10-11T15:26:09.819Z,4.50
2018-10-11T15:31:13.998Z,4.37
2018-10-11T15:36:18.386Z,4.53
2018-10-11T15:41:22.582Z,5.00
2018-10-11T15:46:26.893Z,4.30
2018-10-11T15:51:31.158Z,4.67
2018-10-11T15:56:35.344Z,4.77
2018-10-11T16:01:39.539Z,5.43
2018-10-11T16:06:43.756Z,5.50
2018-10-11T16:11:48.071Z,4.33
2018-10-11T16:16:52.422Z,4.73
2018-10-11T16:21:56.712Z,4.70
2018-10-11T16:27:01.065Z,4.47
2018-10-11T16:32:05.343Z,3.87
2018-10-11T16:37:09.571Z,4.07
2018-10-11T16:42:13.793Z,3.70
2018-10-11T16:47:18.109Z,3.90
2018-10-11T16:52:22.324Z,4.17
2018-10-11T16:57:26.651Z,4.20
2018-10-11T17:02:30.927Z,4.27
2018-10-11T17:07:35.256Z,3.97
2018-10-11T17:12:39.494Z,4.23
2018-10-11T17:17:43.756Z,3.93
2018-10-11T17:22:48.097Z,3.87
2018-10-11T17:27:52.400Z,4.70
2018-10-11T17:32:56.611Z,4.00
2018-10-11T17:38:01.145Z,4.43
2018-10-11T17:43:05.472Z,4.30
2018-10-11T17:48:09.697Z,4.40
2018-10-11T17:53:14.093Z,4.13
2018-10-11T17:58:18.478Z,4.20
2018-10-11T18:03:23.020Z,4.30
2018-10-11T18:08:29.317Z,4.07
2018-10-11T18:13:33.865Z,4.33
2018-10-11T18:18:40.106Z,3.93
2018-10-11T18:23:45.559Z,4.10
2018-10-11T18:28:52.731Z,3.70
2018-10-11T18:33:57.999Z,3.83
2018-10-11T18:39:03.436Z,4.03
2018-10-11T18:44:08.973Z,4.07
2018-10-11T18:49:18.110Z,3.70
2018-10-11T18:54:22.898Z,3.53
2018-10-11T18:59:27.485Z,3.87
2018-10-11T19:04:33.210Z,3.63
2018-10-11T19:09:40.006Z,3.40
2018-10-11T19:14:45.966Z,3.20
2018-10-11T19:19:51.806Z,3.00
2018-10-11T19:24:56.068Z,3.30
2018-10-11T19:30:00.584Z,3.27
2018-10-11T19:35:04.913Z,3.13
2018-10-11T19:40:10.974Z,2.93
2018-10-11T19:45:18.114Z,2.87
2018-10-11T19:50:22.334Z,3.53
2018-10-11T19:55:27.259Z,3.20
2018-10-11T20:00:32.429Z,3.10
2018-10-11T20:05:37.748Z,2.97
2018-10-11T20:10:42.888Z,3.20
2018-10-11T20:15:47.542Z,4.80
2018-10-11T20:20:51.957Z,5.53
2018-10-11T20:25:56.266Z,5.27
2018-10-11T20:31:00.960Z,4.50
2018-10-11T20:36:05.185Z,2.77
2018-10-11T20:41:09.339Z,2.90
2018-10-11T20:46:13.606Z,2.90
2018-10-11T20:51:18.007Z,2.97
2018-10-11T20:56:22.279Z,2.47
2018-10-11T21:01:26.652Z,3.23
2018-10-11T21:06:30.909Z,2.47
2018-10-11T21:11:35.427Z,2.27
2018-10-11T21:16:39.659Z,2.13
2018-10-11T21:21:43.914Z,2.33
2018-10-11T21:26:48.107Z,2.80
2018-10-11T21:31:52.312Z,2.40
2018-10-11T21:36:56.688Z,2.40
2018-10-11T21:42:00.978Z,2.33
2018-10-11T21:47:05.176Z,2.10
2018-10-11T21:52:10.214Z,2.47
2018-10-11T21:57:14.523Z,2.17
2018-10-11T22:02:18.752Z,2.00
2018-10-11T22:07:23.193Z,2.20
2018-10-11T22:12:27.396Z,2.00
2018-10-11T22:17:31.751Z,2.03
2018-10-11T22:22:35.931Z,2.10
2018-10-11T22:27:40.159Z,2.17
2018-10-11T22:32:45.308Z,2.03
2018-10-11T22:37:54.469Z,2.40
2018-10-11T22:42:58.942Z,2.23
2018-10-11T22:48:03.183Z,2.40
2018-10-11T22:53:07.477Z,2.23
2018-10-11T22:58:11.726Z,2.47
2018-10-11T23:03:15.930Z,2.50
2018-10-11T23:08:20.256Z,2.37
2018-10-11T23:13:24.444Z,2.53
2018-10-11T23:18:28.635Z,2.70
2018-10-11T23:23:32.796Z,2.40
2018-10-11T23:28:37.021Z,2.10
2018-10-11T23:33:42.017Z,1.90
2018-10-11T23:38:46.334Z,2.20
2018-10-11T23:43:50.509Z,2.37
2018-10-11T23:48:54.681Z,2.10
2018-10-11T23:53:58.888Z,2.00
2018-10-11T23:59:03.144Z,2.10
